createdAt,value
2023-05-24T00:00:33.027Z,73.74
2023-05-24T00:03:21.973Z,73.70
2023-05-24T00:05:50.611Z,73.28
2023-05-24T00:08:18.926Z,73.49
2023-05-24T00:10:47.256Z,73.53
2023-05-24T00:13:15.759Z,73.60
2023-05-24T00:15:44.281Z,73.80
2023-05-24T00:18:12.606Z,73.54
2023-05-24T00:20:40.958Z,73.12
2023-05-24T00:23:09.848Z,72.81
2023-05-24T00:25:37.867Z,73.36
2023-05-24T00:28:06.096Z,73.26
2023-05-24T00:30:34.203Z,73.49
2023-05-24T00:33:02.490Z,73.48
2023-05-24T00:35:31.861Z,73.31
2023-05-24T00:38:00.096Z,73.56
2023-05-24T00:40:28.397Z,73.68
2023-05-24T00:42:56.613Z,73.49
2023-05-24T00:45:24.933Z,73.43
2023-05-24T00:47:53.291Z,73.17
2023-05-24T00:50:22.143Z,73.16
2023-05-24T00:52:51.678Z,73.05
2023-05-24T00:55:21.006Z,72.81
2023-05-24T00:57:52.433Z,72.50
2023-05-24T01:00:21.288Z,72.15
2023-05-24T01:02:51.512Z,72.60
2023-05-24T01:05:20.132Z,72.52
2023-05-24T01:08:00.137Z,72.58
2023-05-24T01:10:52.501Z,72.86
2023-05-24T01:13:45.024Z,72.55
2023-05-24T01:16:48.258Z,72.68
2023-05-24T01:20:02.769Z,72.36
2023-05-24T01:22:59.353Z,72.60
2023-05-24T01:26:05.305Z,72.50
2023-05-24T01:28:35.591Z,72.75
2023-05-24T01:31:04.584Z,72.72
2023-05-24T01:33:33.584Z,72.89
2023-05-24T01:36:01.700Z,72.70
2023-05-24T01:38:29.817Z,73.02
2023-05-24T01:41:05.964Z,73.23
2023-05-24T01:43:43.557Z,73.41
2023-05-24T01:46:35.459Z,72.94
2023-05-24T01:49:13.176Z,73.26
2023-05-24T01:51:57.401Z,73.05
2023-05-24T01:54:28.530Z,72.74
2023-05-24T01:56:58.952Z,72.24
2023-05-24T01:59:30.350Z,72.11
2023-05-24T02:01:58.669Z,72.15
2023-05-24T02:04:26.980Z,72.29
2023-05-24T02:06:55.205Z,72.56
2023-05-24T02:09:23.331Z,72.68
2023-05-24T02:11:51.553Z,72.43
2023-05-24T02:14:20.160Z,72.68
2023-05-24T02:16:50.908Z,73.30
2023-05-24T02:19:20.317Z,73.30
2023-05-24T02:21:48.644Z,73.28
2023-05-24T02:24:16.805Z,73.09
2023-05-24T02:26:45.478Z,73.05
2023-05-24T02:29:14.404Z,73.52
2023-05-24T02:31:42.562Z,73.41
2023-05-24T02:34:10.740Z,73.52
2023-05-24T02:36:38.872Z,73.27
2023-05-24T02:39:07.998Z,73.69
2023-05-24T02:41:36.326Z,73.73
2023-05-24T02:44:04.831Z,73.35
2023-05-24T02:46:33.408Z,73.33
2023-05-24T02:49:01.670Z,73.44
2023-05-24T02:51:29.828Z,73.46
2023-05-24T02:53:58.824Z,73.70
2023-05-24T02:56:27.349Z,73.87
2023-05-24T02:58:56.691Z,73.98
2023-05-24T03:01:25.052Z,74.04
2023-05-24T03:03:54.452Z,73.58
2023-05-24T03:06:23.427Z,73.26
2023-05-24T03:08:52.851Z,73.82
2023-05-24T03:11:22.435Z,74.18
2023-05-24T03:13:50.902Z,74.01
2023-05-24T03:16:20.054Z,74.24
2023-05-24T03:18:51.138Z,74.38
2023-05-24T03:21:21.179Z,73.92
2023-05-24T03:23:50.203Z,74.37
2023-05-24T03:26:20.780Z,74.47
2023-05-24T03:28:50.772Z,74.42
2023-05-24T03:31:21.300Z,74.57
2023-05-24T03:33:50.106Z,74.68
2023-05-24T03:36:18.326Z,74.89
2023-05-24T03:38:46.450Z,75.07
2023-05-24T03:41:14.569Z,74.75
2023-05-24T03:43:43.700Z,75.07
2023-05-24T03:46:16.785Z,74.82
2023-05-24T03:48:45.756Z,75.16
2023-05-24T03:51:13.774Z,75.22
2023-05-24T03:53:41.986Z,75.51
2023-05-24T03:56:10.917Z,74.67
2023-05-24T03:58:39.037Z,74.13
2023-05-24T04:01:08.359Z,75.09
2023-05-24T04:03:36.522Z,75.27
2023-05-24T04:06:05.722Z,75.09
2023-05-24T04:08:33.919Z,75.20
2023-05-24T04:11:02.242Z,75.00
2023-05-24T04:13:31.465Z,74.92
2023-05-24T04:15:59.688Z,74.89
2023-05-24T04:18:27.788Z,74.70
2023-05-24T04:20:56.237Z,74.53
2023-05-24T04:23:24.645Z,74.45
2023-05-24T04:25:52.869Z,74.36
2023-05-24T04:28:22.392Z,74.47
2023-05-24T04:30:51.921Z,74.43
2023-05-24T04:33:20.259Z,74.10
2023-05-24T04:35:48.563Z,73.61
2023-05-24T04:38:16.779Z,73.61
2023-05-24T04:40:45.233Z,73.29
2023-05-24T04:43:13.525Z,73.17
2023-05-24T04:45:42.045Z,72.79
2023-05-24T04:48:10.265Z,72.73
2023-05-24T04:50:38.386Z,72.65
2023-05-24T04:53:06.504Z,72.85
2023-05-24T04:55:34.621Z,72.52
2023-05-24T04:58:02.843Z,72.08
2023-05-24T05:00:30.965Z,71.61
2023-05-24T05:02:59.362Z,71.04
2023-05-24T05:05:27.708Z,70.89
2023-05-24T05:07:55.925Z,70.84
2023-05-24T05:10:24.463Z,70.94
2023-05-24T05:12:52.671Z,70.87
2023-05-24T05:15:24.647Z,70.81
2023-05-24T05:17:52.902Z,70.38
2023-05-24T05:20:21.184Z,69.93
2023-05-24T05:22:50.084Z,69.82
2023-05-24T05:25:18.414Z,69.65
2023-05-24T05:27:46.606Z,68.91
2023-05-24T05:30:15.337Z,68.20
2023-05-24T05:32:43.562Z,67.91
2023-05-24T05:35:11.664Z,67.96
2023-05-24T05:37:39.791Z,67.79
2023-05-24T05:40:08.504Z,66.80
2023-05-24T05:42:36.633Z,66.86
2023-05-24T05:45:05.277Z,66.45
2023-05-24T05:47:33.485Z,66.96
2023-05-24T05:50:01.734Z,66.71
2023-05-24T05:52:29.823Z,65.91
2023-05-24T05:54:59.437Z,65.94
2023-05-24T05:57:27.560Z,65.95
2023-05-24T05:59:55.974Z,65.86
2023-05-24T06:02:24.257Z,65.75
2023-05-24T06:04:52.866Z,65.92
2023-05-24T06:07:21.342Z,65.30
2023-05-24T06:09:49.319Z,64.82
2023-05-24T06:12:17.599Z,64.81
2023-05-24T06:14:48.443Z,64.64
2023-05-24T06:17:17.333Z,64.27
2023-05-24T06:19:45.964Z,63.97
2023-05-24T06:22:14.078Z,63.86
2023-05-24T06:24:42.292Z,64.03
2023-05-24T06:27:10.511Z,64.11
2023-05-24T06:29:38.686Z,63.10
2023-05-24T06:32:06.755Z,63.01
2023-05-24T06:34:34.980Z,62.99
2023-05-24T06:51:38.970Z,59.28
2023-05-24T06:54:07.069Z,58.36
2023-05-24T06:56:35.189Z,58.20
2023-05-24T06:59:03.620Z,58.16
2023-05-24T07:01:31.885Z,57.69
2023-05-24T07:04:00.112Z,58.32
2023-05-24T07:06:28.172Z,57.27
2023-05-24T07:08:56.290Z,56.84
2023-05-24T07:11:24.750Z,57.36
2023-05-24T07:13:53.031Z,57.25
2023-05-24T07:16:21.291Z,57.02
2023-05-24T07:18:49.482Z,56.94
2023-05-24T07:21:17.494Z,57.24
2023-05-24T07:23:45.810Z,57.16
2023-05-24T07:26:14.030Z,57.18
2023-05-24T07:28:42.051Z,56.57
2023-05-24T07:31:10.772Z,56.28
2023-05-24T07:33:39.554Z,56.61
2023-05-24T07:36:08.969Z,56.87
2023-05-24T07:38:37.154Z,56.58
2023-05-24T07:41:07.072Z,55.49
2023-05-24T07:43:35.196Z,54.62
2023-05-24T07:46:03.868Z,55.19
2023-05-24T07:48:32.430Z,55.26
2023-05-24T07:51:01.051Z,55.05
2023-05-24T07:53:29.980Z,54.84
2023-05-24T07:55:58.101Z,54.90
2023-05-24T07:58:26.514Z,55.11
2023-05-24T08:00:54.636Z,54.68
2023-05-24T08:03:26.311Z,54.20
2023-05-24T08:05:54.703Z,53.82
2023-05-24T08:08:22.731Z,53.56
2023-05-24T08:10:50.929Z,52.86
2023-05-24T08:13:19.059Z,52.83
2023-05-24T08:15:47.267Z,52.99
2023-05-24T08:18:15.325Z,52.61
2023-05-24T08:20:43.623Z,52.36
2023-05-24T08:23:11.838Z,52.66
2023-05-24T08:25:41.335Z,52.70
2023-05-24T08:28:11.313Z,52.31
2023-05-24T08:30:40.300Z,52.05
2023-05-24T08:33:08.489Z,51.90
2023-05-24T08:35:36.462Z,51.87
2023-05-24T08:38:04.563Z,51.40
2023-05-24T08:40:32.780Z,49.48
2023-05-24T08:43:02.209Z,48.30
2023-05-24T08:45:31.776Z,49.55
2023-05-24T08:48:00.389Z,49.09
2023-05-24T08:50:30.316Z,47.20
2023-05-24T08:52:59.604Z,47.71
2023-05-24T08:55:30.506Z,48.41
2023-05-24T08:58:00.969Z,46.40
2023-05-24T09:00:29.213Z,44.89
2023-05-24T09:02:59.385Z,46.05
2023-05-24T09:05:29.251Z,47.49
2023-05-24T09:08:01.310Z,46.07
2023-05-24T09:10:44.853Z,46.10
2023-05-24T09:13:21.898Z,45.35
2023-05-24T09:15:50.272Z,44.96
2023-05-24T09:18:18.683Z,44.06
2023-05-24T09:20:47.293Z,43.39
2023-05-24T09:23:16.338Z,43.35
2023-05-24T09:25:46.329Z,42.59
2023-05-24T09:28:17.765Z,42.03
2023-05-24T09:30:57.830Z,42.17
2023-05-24T09:33:30.991Z,41.96
2023-05-24T09:36:01.168Z,42.88
2023-05-24T09:38:29.989Z,40.31
2023-05-24T09:41:06.821Z,40.44
2023-05-24T09:43:46.921Z,40.51
2023-05-24T09:46:22.429Z,41.50
2023-05-24T09:49:03.849Z,40.45
2023-05-24T09:51:32.979Z,41.44
2023-05-24T09:54:02.368Z,41.98
2023-05-24T09:56:33.133Z,42.25
2023-05-24T09:59:08.857Z,42.93
2023-05-24T10:01:38.639Z,42.57
2023-05-24T10:04:09.928Z,43.30
2023-05-24T10:06:43.094Z,41.90
2023-05-24T10:09:11.857Z,41.52
2023-05-24T10:11:41.674Z,42.56
2023-05-24T10:14:10.513Z,41.56
2023-05-24T10:16:39.270Z,42.13
2023-05-24T10:19:07.622Z,41.38
2023-05-24T10:21:42.933Z,41.84
2023-05-24T10:24:14.297Z,40.57
2023-05-24T10:26:43.149Z,40.47
2023-05-24T10:29:23.112Z,40.05
2023-05-24T10:31:53.539Z,41.19
2023-05-24T10:34:22.154Z,41.31
2023-05-24T10:36:50.711Z,40.59
2023-05-24T10:39:22.897Z,40.45
2023-05-24T10:41:51.239Z,41.19
2023-05-24T10:44:21.290Z,41.33
2023-05-24T10:47:22.226Z,41.70
2023-05-24T10:49:53.229Z,41.62
2023-05-24T10:52:21.655Z,42.26
2023-05-24T10:55:05.545Z,41.58
2023-05-24T10:57:35.552Z,41.67
2023-05-24T11:03:02.478Z,41.53
2023-05-24T11:05:46.947Z,41.73
2023-05-24T11:08:26.164Z,42.46
2023-05-24T11:11:22.359Z,43.48
2023-05-24T11:13:58.124Z,43.64
2023-05-24T11:16:39.575Z,44.40
2023-05-24T11:19:17.385Z,45.10
2023-05-24T11:21:47.894Z,45.79
2023-05-24T11:24:20.466Z,46.94
2023-05-24T11:26:50.829Z,48.87
2023-05-24T11:29:22.931Z,48.51
2023-05-24T11:32:05.777Z,48.96
2023-05-24T11:34:34.649Z,50.38
2023-05-24T11:37:06.265Z,51.79
2023-05-24T11:39:36.772Z,51.98
2023-05-24T11:42:06.682Z,52.41
2023-05-24T11:44:39.572Z,51.27
2023-05-24T11:47:08.947Z,50.71
2023-05-24T11:49:37.108Z,50.43
2023-05-24T11:52:05.222Z,50.01
2023-05-24T11:54:35.072Z,51.19
2023-05-24T11:57:04.084Z,52.04
2023-05-24T11:59:32.497Z,52.88
2023-05-24T12:02:02.909Z,52.52
2023-05-24T12:04:32.742Z,52.84
2023-05-24T12:07:01.889Z,52.63
2023-05-24T12:09:30.297Z,52.07
2023-05-24T12:11:58.846Z,52.19
2023-05-24T12:14:31.551Z,52.31
2023-05-24T12:17:01.265Z,51.55
2023-05-24T12:19:36.843Z,51.22
2023-05-24T12:22:07.406Z,52.11
2023-05-24T12:24:37.403Z,52.02
2023-05-24T12:27:10.270Z,50.81
2023-05-24T12:29:41.688Z,49.18
2023-05-24T12:32:15.547Z,47.67
2023-05-24T12:34:45.348Z,47.62
2023-05-24T12:37:15.466Z,47.45
2023-05-24T12:39:44.705Z,46.82
2023-05-24T12:42:13.994Z,45.82
2023-05-24T12:44:42.990Z,46.61
2023-05-24T12:47:11.963Z,47.37
2023-05-24T12:49:40.252Z,48.06
2023-05-24T12:52:08.492Z,47.31
2023-05-24T12:54:36.696Z,46.83
2023-05-24T12:57:04.818Z,46.86
2023-05-24T12:59:34.062Z,47.16
2023-05-24T13:02:02.573Z,47.29
2023-05-24T13:04:33.901Z,48.20
2023-05-24T13:07:03.817Z,50.19
2023-05-24T13:09:33.451Z,51.61
2023-05-24T13:12:02.168Z,51.63
2023-05-24T13:14:30.633Z,51.21
2023-05-24T13:16:59.337Z,51.07
2023-05-24T13:19:27.750Z,51.27
2023-05-24T13:21:55.854Z,51.41
2023-05-24T13:24:24.379Z,50.90
2023-05-24T13:26:54.633Z,51.07
2023-05-24T13:31:54.758Z,51.18
2023-05-24T13:34:25.999Z,51.25
2023-05-24T13:36:54.880Z,51.79
2023-05-24T13:39:23.927Z,52.02
2023-05-24T13:41:52.444Z,51.67
2023-05-24T13:44:21.554Z,51.96
2023-05-24T13:46:49.816Z,52.23
2023-05-24T13:49:18.519Z,52.20
2023-05-24T13:51:47.340Z,51.28
2023-05-24T13:54:16.579Z,49.82
2023-05-24T13:56:45.148Z,48.00
2023-05-24T13:59:13.909Z,47.76
2023-05-24T14:01:42.789Z,47.78
2023-05-24T14:04:11.460Z,47.33
2023-05-24T14:06:39.696Z,46.58
2023-05-24T14:09:08.612Z,46.48
2023-05-24T14:11:37.223Z,46.12
2023-05-24T14:16:37.259Z,44.58
2023-05-24T14:19:05.816Z,44.15
2023-05-24T14:21:34.127Z,44.17
2023-05-24T14:24:02.276Z,43.72
2023-05-24T14:26:31.357Z,43.67
2023-05-24T14:28:59.478Z,44.21
2023-05-24T14:31:27.921Z,43.98
2023-05-24T14:33:56.018Z,44.36
2023-05-24T14:36:24.145Z,45.20
2023-05-24T14:38:52.462Z,45.74
2023-05-24T14:41:20.685Z,45.54
2023-05-24T14:43:48.695Z,45.89
2023-05-24T14:46:16.862Z,45.08
2023-05-24T14:48:44.937Z,44.57
2023-05-24T14:51:13.061Z,44.63
2023-05-24T14:53:41.380Z,44.42
2023-05-24T14:56:10.229Z,44.32
2023-05-24T14:58:38.430Z,44.28
2023-05-24T15:01:07.180Z,45.31
2023-05-24T15:03:36.082Z,45.65
2023-05-24T15:06:05.655Z,45.78
2023-05-24T15:08:35.247Z,45.89
2023-05-24T15:11:03.535Z,46.02
2023-05-24T15:13:31.755Z,46.23
2023-05-24T15:16:00.880Z,45.83
2023-05-24T15:18:31.682Z,46.12
2023-05-24T15:20:59.984Z,46.45
2023-05-24T15:23:28.723Z,46.78
2023-05-24T15:25:56.997Z,47.00
2023-05-24T15:28:26.380Z,46.76
2023-05-24T15:30:55.194Z,46.99
2023-05-24T15:33:23.584Z,47.94
2023-05-24T15:35:51.769Z,48.43
2023-05-24T15:38:19.986Z,49.19
2023-05-24T15:40:48.908Z,50.62
2023-05-24T15:43:20.336Z,50.73
2023-05-24T15:45:49.074Z,51.31
2023-05-24T15:48:17.277Z,52.36
2023-05-24T15:51:03.733Z,53.25
2023-05-24T15:53:33.894Z,53.77
2023-05-24T15:56:02.022Z,52.13
2023-05-24T15:58:30.230Z,51.43
2023-05-24T16:00:58.350Z,51.66
2023-05-24T16:03:26.717Z,51.88
2023-05-24T16:05:55.085Z,51.96
2023-05-24T16:08:28.186Z,51.52
2023-05-24T16:10:57.011Z,52.07
2023-05-24T16:13:25.882Z,52.61
2023-05-24T16:15:54.146Z,52.93
2023-05-24T16:18:23.187Z,53.38
2023-05-24T16:20:52.749Z,53.84
2023-05-24T16:23:23.417Z,54.05
2023-05-24T16:25:51.930Z,54.39
2023-05-24T16:28:24.846Z,54.43
2023-05-24T16:30:56.178Z,54.61
2023-05-24T16:33:25.388Z,55.05
2023-05-24T16:35:56.933Z,55.31
2023-05-24T16:38:26.252Z,55.33
2023-05-24T16:40:54.882Z,55.69
2023-05-24T16:43:23.113Z,56.07
2023-05-24T16:45:51.813Z,56.64
2023-05-24T16:48:21.858Z,57.12
2023-05-24T16:50:51.978Z,56.67
2023-05-24T16:53:23.288Z,56.50
2023-05-24T16:55:54.199Z,57.07
2023-05-24T16:58:23.946Z,57.68
2023-05-24T17:00:54.558Z,58.23
2023-05-24T17:03:28.729Z,58.32
2023-05-24T17:06:03.459Z,58.72
2023-05-24T17:08:36.870Z,58.99
2023-05-24T17:11:05.852Z,59.33
2023-05-24T17:13:34.501Z,59.78
2023-05-24T17:16:03.918Z,60.08
2023-05-24T17:18:32.189Z,60.57
2023-05-24T17:21:02.079Z,60.95
2023-05-24T17:23:34.999Z,61.30
2023-05-24T17:26:04.483Z,61.37
2023-05-24T17:28:35.653Z,61.74
2023-05-24T17:31:04.496Z,62.12
2023-05-24T17:33:32.753Z,62.28
2023-05-24T17:36:06.455Z,62.06
2023-05-24T17:38:37.644Z,61.68
2023-05-24T17:41:09.315Z,61.60
2023-05-24T17:43:39.256Z,61.45
2023-05-24T17:46:07.822Z,61.54
2023-05-24T17:48:37.851Z,61.29
2023-05-24T17:51:08.480Z,61.37
2023-05-24T17:53:38.411Z,61.33
2023-05-24T17:56:08.015Z,61.32
2023-05-24T17:58:37.240Z,61.32
2023-05-24T18:01:07.653Z,61.23
2023-05-24T18:03:37.582Z,61.03
2023-05-24T18:06:07.539Z,60.85
2023-05-24T18:08:38.468Z,60.77
2023-05-24T18:11:11.310Z,60.88
2023-05-24T18:13:42.059Z,61.58
2023-05-24T18:16:11.732Z,61.81
2023-05-24T18:18:40.165Z,61.99
2023-05-24T18:21:09.761Z,61.72
2023-05-24T18:23:38.534Z,61.72
2023-05-24T18:26:11.731Z,61.55
2023-05-24T18:28:42.270Z,61.59
2023-05-24T18:31:10.684Z,61.82
2023-05-24T18:33:39.046Z,62.05
2023-05-24T18:36:07.917Z,63.30
2023-05-24T18:38:37.072Z,64.65
2023-05-24T18:41:09.617Z,65.19
2023-05-24T18:43:38.414Z,64.03
2023-05-24T18:46:06.763Z,64.47
2023-05-24T18:48:34.959Z,64.67
2023-05-24T18:51:03.378Z,64.93
2023-05-24T18:53:31.501Z,64.73
2023-05-24T18:55:59.619Z,64.43
2023-05-24T18:58:27.933Z,64.58
2023-05-24T19:00:56.133Z,64.97
2023-05-24T19:03:25.052Z,64.83
2023-05-24T19:05:53.403Z,64.71
2023-05-24T19:08:21.518Z,65.02
2023-05-24T19:10:49.851Z,65.33
2023-05-24T19:13:18.157Z,65.62
2023-05-24T19:15:46.469Z,65.64
2023-05-24T19:18:14.703Z,65.85
2023-05-24T19:20:43.348Z,64.77
2023-05-24T19:23:11.544Z,64.52
2023-05-24T19:25:42.257Z,65.01
2023-05-24T19:28:11.191Z,65.11
2023-05-24T19:30:39.732Z,64.21
2023-05-24T19:33:08.010Z,64.65
2023-05-24T19:35:37.159Z,65.14
2023-05-24T19:38:05.278Z,65.20
2023-05-24T19:40:33.417Z,66.08
2023-05-24T19:43:01.746Z,66.55
2023-05-24T19:45:29.940Z,66.86
2023-05-24T19:47:58.159Z,67.22
2023-05-24T19:50:29.771Z,67.41
2023-05-24T19:52:59.215Z,67.74
2023-05-24T19:55:27.442Z,67.58
2023-05-24T19:57:55.565Z,67.64
2023-05-24T20:00:23.790Z,67.60
2023-05-24T20:02:52.166Z,67.42
2023-05-24T20:05:21.231Z,67.66
2023-05-24T20:07:49.445Z,67.53
2023-05-24T20:10:17.662Z,67.44
2023-05-24T20:12:45.984Z,67.49
2023-05-24T20:15:17.634Z,67.48
2023-05-24T20:17:46.066Z,67.51
2023-05-24T20:20:14.455Z,67.88
2023-05-24T20:22:42.781Z,67.85
2023-05-24T20:25:11.509Z,67.96
2023-05-24T20:27:42.130Z,67.38
2023-05-24T20:30:11.572Z,67.01
2023-05-24T20:32:39.857Z,66.81
2023-05-24T20:35:09.246Z,66.71
2023-05-24T20:37:38.130Z,66.79
2023-05-24T20:40:07.611Z,66.84
2023-05-24T20:42:35.968Z,66.80
2023-05-24T20:45:04.585Z,67.15
2023-05-24T20:47:32.730Z,67.64
2023-05-24T20:50:00.943Z,67.60
2023-05-24T20:52:29.268Z,67.29
2023-05-24T20:54:57.373Z,67.06
2023-05-24T20:57:25.489Z,67.16
2023-05-24T20:59:53.811Z,67.47
2023-05-24T21:02:22.093Z,67.37
2023-05-24T21:04:50.856Z,67.34
2023-05-24T21:07:18.982Z,67.97
2023-05-24T21:09:47.100Z,68.37
2023-05-24T21:12:15.312Z,67.31
2023-05-24T21:14:44.241Z,67.74
2023-05-24T21:17:12.723Z,68.38
2023-05-24T21:19:41.682Z,68.67
2023-05-24T21:22:09.897Z,68.60
2023-05-24T21:24:38.526Z,68.57
2023-05-24T21:27:08.251Z,68.83
2023-05-24T21:29:38.273Z,68.58
2023-05-24T21:32:06.491Z,68.21
2023-05-24T21:34:35.928Z,68.05
2023-05-24T21:37:05.232Z,68.02
2023-05-24T21:39:33.398Z,68.30
2023-05-24T21:42:02.586Z,68.86
2023-05-24T21:44:30.831Z,68.89
2023-05-24T21:46:59.110Z,69.02
2023-05-24T21:49:27.847Z,69.30
2023-05-24T21:51:55.984Z,69.16
2023-05-24T21:54:24.212Z,69.15
2023-05-24T21:56:52.422Z,69.38
2023-05-24T21:59:21.626Z,69.37
2023-05-24T22:01:49.752Z,69.44
2023-05-24T22:04:18.138Z,69.35
2023-05-24T22:06:46.704Z,69.23
2023-05-24T22:09:14.811Z,69.23
2023-05-24T22:11:42.940Z,69.36
2023-05-24T22:14:11.252Z,69.84
2023-05-24T22:16:39.436Z,70.46
2023-05-24T22:19:16.626Z,70.63
2023-05-24T22:21:50.401Z,71.13
2023-05-24T22:24:18.590Z,71.05
2023-05-24T22:26:47.205Z,70.93
2023-05-24T22:29:16.116Z,70.88
2023-05-24T22:31:44.297Z,70.43
2023-05-24T22:34:13.578Z,70.65
2023-05-24T22:36:41.805Z,70.59
2023-05-24T22:39:10.220Z,70.71
2023-05-24T22:41:38.251Z,70.80
2023-05-24T22:44:06.370Z,70.90
2023-05-24T22:46:34.605Z,70.84
2023-05-24T22:49:05.929Z,70.66
2023-05-24T22:51:34.141Z,70.80
2023-05-24T22:54:02.355Z,70.55
2023-05-24T22:56:32.487Z,70.60
2023-05-24T22:59:00.598Z,70.49
2023-05-24T23:01:28.799Z,70.14
2023-05-24T23:04:07.745Z,70.14
2023-05-24T23:06:45.767Z,70.09
2023-05-24T23:09:14.257Z,69.73
2023-05-24T23:11:43.127Z,69.53
2023-05-24T23:14:11.736Z,69.40
2023-05-24T23:16:46.037Z,69.18
2023-05-24T23:19:19.072Z,69.38
2023-05-24T23:21:47.697Z,69.79
2023-05-24T23:24:16.169Z,70.15
2023-05-24T23:26:44.435Z,70.14
2023-05-24T23:29:12.712Z,70.12
2023-05-24T23:31:41.172Z,69.86
2023-05-24T23:34:09.394Z,70.29
2023-05-24T23:36:37.520Z,70.23
2023-05-24T23:39:06.347Z,70.28
2023-05-24T23:41:34.563Z,70.97
2023-05-24T23:44:02.678Z,71.57
2023-05-24T23:46:30.871Z,71.51
2023-05-24T23:48:59.225Z,71.13
2023-05-24T23:51:27.348Z,70.81
2023-05-24T23:53:55.666Z,70.91
2023-05-24T23:56:23.785Z,70.83
2023-05-24T23:58:51.908Z,70.74
